sensor_id;sensor_type;location;lat;lon;timestamp;P1;durP1;ratioP1;P2;durP2;ratioP2
48897;SDS011;34713;50.038;20.000;2023-05-29T00:00:43;6.80;;;4.00;;
48897;SDS011;34713;50.038;20.000;2023-05-29T00:03:24;7.50;;;3.80;;
48897;SDS011;34713;50.038;20.000;2023-05-29T00:05:50;8.90;;;3.90;;
48897;SDS011;34713;50.038;20.000;2023-05-29T00:08:17;14.30;;;4.50;;
48897;SDS011;34713;50.038;20.000;2023-05-29T00:10:44;8.30;;;4.00;;
48897;SDS011;34713;50.038;20.000;2023-05-29T00:13:11;9.00;;;4.30;;
48897;SDS011;34713;50.038;20.000;2023-05-29T00:15:37;9.10;;;4.20;;
48897;SDS011;34713;50.038;20.000;2023-05-29T00:18:04;7.30;;;4.10;;
48897;SDS011;34713;50.038;20.000;2023-05-29T00:20:31;6.90;;;4.00;;
48897;SDS011;34713;50.038;20.000;2023-05-29T00:23:00;6.20;;;3.80;;
48897;SDS011;34713;50.038;20.000;2023-05-29T00:25:28;6.70;;;4.30;;
48897;SDS011;34713;50.038;20.000;2023-05-29T00:27:55;7.00;;;4.10;;
48897;SDS011;34713;50.038;20.000;2023-05-29T00:30:21;10.10;;;4.00;;
48897;SDS011;34713;50.038;20.000;2023-05-29T00:32:48;7.40;;;4.10;;
48897;SDS011;34713;50.038;20.000;2023-05-29T00:35:17;9.60;;;4.70;;
48897;SDS011;34713;50.038;20.000;2023-05-29T00:37:44;8.10;;;4.30;;
48897;SDS011;34713;50.038;20.000;2023-05-29T00:40:11;8.20;;;4.60;;
48897;SDS011;34713;50.038;20.000;2023-05-29T00:42:49;8.50;;;4.60;;
48897;SDS011;34713;50.038;20.000;2023-05-29T00:45:16;9.00;;;4.60;;
48897;SDS011;34713;50.038;20.000;2023-05-29T00:47:43;7.30;;;4.90;;
48897;SDS011;34713;50.038;20.000;2023-05-29T00:50:10;11.60;;;4.60;;
48897;SDS011;34713;50.038;20.000;2023-05-29T00:52:40;8.90;;;4.60;;
48897;SDS011;34713;50.038;20.000;2023-05-29T00:55:08;7.90;;;4.40;;
48897;SDS011;34713;50.038;20.000;2023-05-29T00:57:35;8.40;;;5.20;;
48897;SDS011;34713;50.038;20.000;2023-05-29T01:00:04;8.40;;;4.40;;
48897;SDS011;34713;50.038;20.000;2023-05-29T01:02:37;9.20;;;4.20;;
48897;SDS011;34713;50.038;20.000;2023-05-29T01:05:04;9.60;;;4.20;;
48897;SDS011;34713;50.038;20.000;2023-05-29T01:07:32;6.80;;;4.20;;
48897;SDS011;34713;50.038;20.000;2023-05-29T01:09:59;9.10;;;4.70;;
48897;SDS011;34713;50.038;20.000;2023-05-29T01:29:19;6.80;;;4.50;;
48897;SDS011;34713;50.038;20.000;2023-05-29T01:31:49;10.70;;;4.30;;
48897;SDS011;34713;50.038;20.000;2023-05-29T01:34:16;9.40;;;4.40;;
48897;SDS011;34713;50.038;20.000;2023-05-29T01:36:43;7.10;;;4.60;;
48897;SDS011;34713;50.038;20.000;2023-05-29T01:39:09;6.80;;;4.50;;
48897;SDS011;34713;50.038;20.000;2023-05-29T01:41:36;9.90;;;5.00;;
48897;SDS011;34713;50.038;20.000;2023-05-29T01:44:07;10.70;;;4.40;;
48897;SDS011;34713;50.038;20.000;2023-05-29T01:46:35;8.60;;;4.80;;
48897;SDS011;34713;50.038;20.000;2023-05-29T01:49:09;12.20;;;4.80;;
48897;SDS011;34713;50.038;20.000;2023-05-29T01:51:40;9.70;;;5.20;;
48897;SDS011;34713;50.038;20.000;2023-05-29T01:54:07;11.10;;;4.90;;
48897;SDS011;34713;50.038;20.000;2023-05-29T01:56:34;12.50;;;5.00;;
48897;SDS011;34713;50.038;20.000;2023-05-29T01:59:02;8.90;;;4.80;;
48897;SDS011;34713;50.038;20.000;2023-05-29T02:01:29;7.90;;;4.40;;
48897;SDS011;34713;50.038;20.000;2023-05-29T02:03:57;6.10;;;4.00;;
48897;SDS011;34713;50.038;20.000;2023-05-29T02:06:24;8.80;;;4.40;;
48897;SDS011;34713;50.038;20.000;2023-05-29T02:08:50;8.90;;;4.10;;
48897;SDS011;34713;50.038;20.000;2023-05-29T02:11:17;8.70;;;4.20;;
48897;SDS011;34713;50.038;20.000;2023-05-29T02:13:44;7.30;;;3.60;;
48897;SDS011;34713;50.038;20.000;2023-05-29T02:16:11;7.80;;;3.40;;
48897;SDS011;34713;50.038;20.000;2023-05-29T02:18:37;6.30;;;3.70;;
48897;SDS011;34713;50.038;20.000;2023-05-29T02:21:05;7.70;;;3.30;;
48897;SDS011;34713;50.038;20.000;2023-05-29T02:23:32;8.40;;;4.00;;
48897;SDS011;34713;50.038;20.000;2023-05-29T02:25:58;6.10;;;3.40;;
48897;SDS011;34713;50.038;20.000;2023-05-29T02:28:25;6.40;;;3.50;;
48897;SDS011;34713;50.038;20.000;2023-05-29T02:30:51;6.70;;;3.50;;
48897;SDS011;34713;50.038;20.000;2023-05-29T02:33:18;5.80;;;3.40;;
48897;SDS011;34713;50.038;20.000;2023-05-29T02:35:45;7.30;;;3.30;;
48897;SDS011;34713;50.038;20.000;2023-05-29T02:38:11;9.30;;;3.70;;
48897;SDS011;34713;50.038;20.000;2023-05-29T02:40:38;7.90;;;3.20;;
48897;SDS011;34713;50.038;20.000;2023-05-29T02:43:05;6.40;;;3.40;;
48897;SDS011;34713;50.038;20.000;2023-05-29T02:45:32;7.10;;;3.20;;
48897;SDS011;34713;50.038;20.000;2023-05-29T02:47:59;7.20;;;3.50;;
48897;SDS011;34713;50.038;20.000;2023-05-29T02:50:26;5.80;;;3.60;;
48897;SDS011;34713;50.038;20.000;2023-05-29T02:52:54;7.00;;;3.40;;
48897;SDS011;34713;50.038;20.000;2023-05-29T02:55:23;7.80;;;3.30;;
48897;SDS011;34713;50.038;20.000;2023-05-29T02:57:49;9.20;;;3.70;;
48897;SDS011;34713;50.038;20.000;2023-05-29T03:00:19;7.60;;;3.80;;
48897;SDS011;34713;50.038;20.000;2023-05-29T03:02:46;7.30;;;3.10;;
48897;SDS011;34713;50.038;20.000;2023-05-29T03:05:13;9.50;;;2.90;;
48897;SDS011;34713;50.038;20.000;2023-05-29T03:07:40;6.40;;;3.90;;
48897;SDS011;34713;50.038;20.000;2023-05-29T03:10:07;14.20;;;4.40;;
48897;SDS011;34713;50.038;20.000;2023-05-29T03:12:33;9.20;;;3.20;;
48897;SDS011;34713;50.038;20.000;2023-05-29T03:15:01;7.20;;;3.20;;
48897;SDS011;34713;50.038;20.000;2023-05-29T03:17:27;8.90;;;4.10;;
48897;SDS011;34713;50.038;20.000;2023-05-29T03:19:54;8.10;;;3.50;;
48897;SDS011;34713;50.038;20.000;2023-05-29T03:22:20;9.10;;;3.70;;
48897;SDS011;34713;50.038;20.000;2023-05-29T03:24:47;6.70;;;4.20;;
48897;SDS011;34713;50.038;20.000;2023-05-29T03:27:14;10.20;;;3.80;;
48897;SDS011;34713;50.038;20.000;2023-05-29T03:29:40;8.50;;;3.60;;
48897;SDS011;34713;50.038;20.000;2023-05-29T03:32:07;9.70;;;3.40;;
48897;SDS011;34713;50.038;20.000;2023-05-29T03:34:34;7.80;;;4.00;;
48897;SDS011;34713;50.038;20.000;2023-05-29T03:37:00;10.70;;;4.50;;
48897;SDS011;34713;50.038;20.000;2023-05-29T03:39:28;10.70;;;3.80;;
48897;SDS011;34713;50.038;20.000;2023-05-29T03:41:55;9.50;;;3.60;;
48897;SDS011;34713;50.038;20.000;2023-05-29T03:44:21;11.40;;;3.90;;
48897;SDS011;34713;50.038;20.000;2023-05-29T03:46:48;10.90;;;3.30;;
48897;SDS011;34713;50.038;20.000;2023-05-29T03:49:15;11.10;;;4.70;;
48897;SDS011;34713;50.038;20.000;2023-05-29T03:51:42;15.10;;;4.40;;
48897;SDS011;34713;50.038;20.000;2023-05-29T03:54:19;12.50;;;4.30;;
48897;SDS011;34713;50.038;20.000;2023-05-29T03:56:46;14.10;;;4.20;;
48897;SDS011;34713;50.038;20.000;2023-05-29T03:59:13;12.20;;;4.20;;
48897;SDS011;34713;50.038;20.000;2023-05-29T04:01:40;16.20;;;4.30;;
48897;SDS011;34713;50.038;20.000;2023-05-29T04:04:06;16.00;;;4.60;;
48897;SDS011;34713;50.038;20.000;2023-05-29T04:06:33;17.00;;;5.30;;
48897;SDS011;34713;50.038;20.000;2023-05-29T04:08:59;18.10;;;5.00;;
48897;SDS011;34713;50.038;20.000;2023-05-29T04:11:26;19.00;;;5.40;;
48897;SDS011;34713;50.038;20.000;2023-05-29T04:13:53;17.00;;;5.40;;
48897;SDS011;34713;50.038;20.000;2023-05-29T04:16:20;20.30;;;5.60;;
48897;SDS011;34713;50.038;20.000;2023-05-29T04:18:46;19.80;;;5.40;;
48897;SDS011;34713;50.038;20.000;2023-05-29T04:21:15;18.60;;;5.00;;
48897;SDS011;34713;50.038;20.000;2023-05-29T04:23:42;18.80;;;4.70;;
48897;SDS011;34713;50.038;20.000;2023-05-29T04:26:08;12.90;;;4.00;;
48897;SDS011;34713;50.038;20.000;2023-05-29T04:28:36;10.00;;;4.60;;
48897;SDS011;34713;50.038;20.000;2023-05-29T04:31:06;10.30;;;3.70;;
48897;SDS011;34713;50.038;20.000;2023-05-29T04:33:32;8.80;;;3.80;;
48897;SDS011;34713;50.038;20.000;2023-05-29T04:36:03;7.30;;;3.20;;
48897;SDS011;34713;50.038;20.000;2023-05-29T04:38:30;10.40;;;4.00;;
48897;SDS011;34713;50.038;20.000;2023-05-29T04:40:56;15.10;;;4.50;;
48897;SDS011;34713;50.038;20.000;2023-05-29T04:43:25;7.50;;;3.70;;
48897;SDS011;34713;50.038;20.000;2023-05-29T04:45:52;12.20;;;3.90;;
48897;SDS011;34713;50.038;20.000;2023-05-29T04:48:19;5.60;;;3.70;;
48897;SDS011;34713;50.038;20.000;2023-05-29T04:50:46;6.50;;;3.40;;
48897;SDS011;34713;50.038;20.000;2023-05-29T04:53:14;6.50;;;3.30;;
48897;SDS011;34713;50.038;20.000;2023-05-29T04:55:41;7.40;;;3.30;;
48897;SDS011;34713;50.038;20.000;2023-05-29T04:58:08;6.50;;;3.70;;
48897;SDS011;34713;50.038;20.000;2023-05-29T05:00:34;5.90;;;2.80;;
48897;SDS011;34713;50.038;20.000;2023-05-29T05:03:01;9.90;;;3.10;;
48897;SDS011;34713;50.038;20.000;2023-05-29T05:05:28;6.30;;;2.80;;
48897;SDS011;34713;50.038;20.000;2023-05-29T05:07:54;6.00;;;3.20;;
48897;SDS011;34713;50.038;20.000;2023-05-29T05:10:21;13.30;;;3.90;;
48897;SDS011;34713;50.038;20.000;2023-05-29T05:12:48;12.30;;;3.20;;
48897;SDS011;34713;50.038;20.000;2023-05-29T05:15:14;13.30;;;3.60;;
48897;SDS011;34713;50.038;20.000;2023-05-29T05:17:41;6.50;;;3.70;;
48897;SDS011;34713;50.038;20.000;2023-05-29T05:20:08;11.30;;;3.80;;
48897;SDS011;34713;50.038;20.000;2023-05-29T05:22:35;9.90;;;4.00;;
48897;SDS011;34713;50.038;20.000;2023-05-29T05:25:02;9.40;;;3.90;;
48897;SDS011;34713;50.038;20.000;2023-05-29T05:27:30;7.10;;;4.30;;
48897;SDS011;34713;50.038;20.000;2023-05-29T05:29:56;12.80;;;4.60;;
48897;SDS011;34713;50.038;20.000;2023-05-29T05:32:23;10.00;;;4.30;;
48897;SDS011;34713;50.038;20.000;2023-05-29T05:34:50;12.80;;;4.20;;
48897;SDS011;34713;50.038;20.000;2023-05-29T05:37:16;11.20;;;4.50;;
48897;SDS011;34713;50.038;20.000;2023-05-29T05:39:43;6.30;;;4.10;;
48897;SDS011;34713;50.038;20.000;2023-05-29T05:42:09;12.90;;;3.80;;
48897;SDS011;34713;50.038;20.000;2023-05-29T05:44:36;8.50;;;3.90;;
48897;SDS011;34713;50.038;20.000;2023-05-29T05:47:03;9.20;;;3.40;;
48897;SDS011;34713;50.038;20.000;2023-05-29T05:49:30;11.20;;;3.70;;
48897;SDS011;34713;50.038;20.000;2023-05-29T05:51:57;8.40;;;3.40;;
48897;SDS011;34713;50.038;20.000;2023-05-29T05:54:23;8.90;;;3.70;;
48897;SDS011;34713;50.038;20.000;2023-05-29T05:56:52;8.90;;;3.10;;
48897;SDS011;34713;50.038;20.000;2023-05-29T05:59:19;6.90;;;2.60;;
48897;SDS011;34713;50.038;20.000;2023-05-29T06:01:45;9.00;;;2.80;;
48897;SDS011;34713;50.038;20.000;2023-05-29T06:04:12;7.40;;;2.90;;
48897;SDS011;34713;50.038;20.000;2023-05-29T06:06:39;5.20;;;2.60;;
48897;SDS011;34713;50.038;20.000;2023-05-29T06:09:06;6.40;;;3.30;;
48897;SDS011;34713;50.038;20.000;2023-05-29T06:11:32;9.60;;;2.50;;
48897;SDS011;34713;50.038;20.000;2023-05-29T06:13:59;4.50;;;2.50;;
48897;SDS011;34713;50.038;20.000;2023-05-29T06:16:26;7.70;;;3.00;;
48897;SDS011;34713;50.038;20.000;2023-05-29T06:18:53;5.00;;;3.10;;
48897;SDS011;34713;50.038;20.000;2023-05-29T06:21:19;11.70;;;3.70;;
48897;SDS011;34713;50.038;20.000;2023-05-29T06:23:46;9.00;;;3.70;;
48897;SDS011;34713;50.038;20.000;2023-05-29T06:26:14;15.20;;;4.40;;
48897;SDS011;34713;50.038;20.000;2023-05-29T06:28:42;9.80;;;3.90;;
48897;SDS011;34713;50.038;20.000;2023-05-29T06:31:08;12.30;;;4.20;;
48897;SDS011;34713;50.038;20.000;2023-05-29T06:33:35;16.30;;;4.90;;
48897;SDS011;34713;50.038;20.000;2023-05-29T06:36:04;10.20;;;4.20;;
48897;SDS011;34713;50.038;20.000;2023-05-29T06:38:31;10.30;;;3.80;;
48897;SDS011;34713;50.038;20.000;2023-05-29T06:41:01;9.30;;;4.10;;
48897;SDS011;34713;50.038;20.000;2023-05-29T06:43:31;10.80;;;4.00;;
48897;SDS011;34713;50.038;20.000;2023-05-29T06:45:58;12.00;;;4.40;;
48897;SDS011;34713;50.038;20.000;2023-05-29T06:48:25;12.80;;;4.30;;
48897;SDS011;34713;50.038;20.000;2023-05-29T06:54:01;9.90;;;4.40;;
48897;SDS011;34713;50.038;20.000;2023-05-29T06:56:52;13.90;;;4.40;;
48897;SDS011;34713;50.038;20.000;2023-05-29T06:59:39;16.20;;;4.50;;
48897;SDS011;34713;50.038;20.000;2023-05-29T07:05:38;11.00;;;4.60;;
48897;SDS011;34713;50.038;20.000;2023-05-29T07:08:16;14.40;;;4.90;;
48897;SDS011;34713;50.038;20.000;2023-05-29T07:13:43;11.80;;;4.80;;
48897;SDS011;34713;50.038;20.000;2023-05-29T07:16:16;12.20;;;4.40;;
48897;SDS011;34713;50.038;20.000;2023-05-29T07:18:52;12.00;;;4.20;;
48897;SDS011;34713;50.038;20.000;2023-05-29T07:24:40;13.80;;;4.50;;
48897;SDS011;34713;50.038;20.000;2023-05-29T07:29:47;9.90;;;4.00;;
48897;SDS011;34713;50.038;20.000;2023-05-29T07:32:14;15.10;;;4.30;;
48897;SDS011;34713;50.038;20.000;2023-05-29T07:34:48;12.30;;;3.40;;
48897;SDS011;34713;50.038;20.000;2023-05-29T07:37:25;14.30;;;4.10;;
48897;SDS011;34713;50.038;20.000;2023-05-29T07:39:51;11.50;;;4.10;;
48897;SDS011;34713;50.038;20.000;2023-05-29T07:48:25;8.60;;;3.80;;
48897;SDS011;34713;50.038;20.000;2023-05-29T07:50:57;9.20;;;3.70;;
48897;SDS011;34713;50.038;20.000;2023-05-29T07:53:44;15.90;;;4.10;;
48897;SDS011;34713;50.038;20.000;2023-05-29T07:59:28;9.10;;;3.30;;
48897;SDS011;34713;50.038;20.000;2023-05-29T08:05:09;9.80;;;3.60;;
48897;SDS011;34713;50.038;20.000;2023-05-29T08:07:57;16.70;;;3.70;;
48897;SDS011;34713;50.038;20.000;2023-05-29T08:10:28;10.00;;;3.20;;
48897;SDS011;34713;50.038;20.000;2023-05-29T08:12:55;10.60;;;3.00;;
48897;SDS011;34713;50.038;20.000;2023-05-29T08:18:42;13.90;;;3.70;;
48897;SDS011;34713;50.038;20.000;2023-05-29T08:21:11;8.90;;;3.00;;
48897;SDS011;34713;50.038;20.000;2023-05-29T08:23:41;8.40;;;3.10;;
48897;SDS011;34713;50.038;20.000;2023-05-29T08:26:11;10.60;;;3.30;;
48897;SDS011;34713;50.038;20.000;2023-05-29T08:28:38;10.70;;;3.00;;
48897;SDS011;34713;50.038;20.000;2023-05-29T08:31:05;16.20;;;3.60;;
48897;SDS011;34713;50.038;20.000;2023-05-29T08:34:22;14.40;;;2.90;;
48897;SDS011;34713;50.038;20.000;2023-05-29T08:36:59;7.70;;;3.30;;
48897;SDS011;34713;50.038;20.000;2023-05-29T08:39:38;6.00;;;2.40;;
48897;SDS011;34713;50.038;20.000;2023-05-29T08:42:53;8.20;;;2.70;;
48897;SDS011;34713;50.038;20.000;2023-05-29T08:45:05;12.10;;;3.20;;
48897;SDS011;34713;50.038;20.000;2023-05-29T08:47:36;6.90;;;2.60;;
48897;SDS011;34713;50.038;20.000;2023-05-29T08:50:09;9.40;;;3.10;;
48897;SDS011;34713;50.038;20.000;2023-05-29T08:52:37;5.00;;;2.50;;
48897;SDS011;34713;50.038;20.000;2023-05-29T08:55:26;5.70;;;2.60;;
48897;SDS011;34713;50.038;20.000;2023-05-29T08:57:57;7.10;;;2.80;;
48897;SDS011;34713;50.038;20.000;2023-05-29T09:00:53;10.40;;;2.60;;
48897;SDS011;34713;50.038;20.000;2023-05-29T09:03:24;9.10;;;2.30;;
48897;SDS011;34713;50.038;20.000;2023-05-29T09:06:07;7.20;;;2.30;;
48897;SDS011;34713;50.038;20.000;2023-05-29T09:08:44;6.90;;;2.70;;
48897;SDS011;34713;50.038;20.000;2023-05-29T09:11:15;12.70;;;2.80;;
48897;SDS011;34713;50.038;20.000;2023-05-29T09:13:46;8.40;;;3.00;;
48897;SDS011;34713;50.038;20.000;2023-05-29T09:16:12;10.30;;;2.70;;
48897;SDS011;34713;50.038;20.000;2023-05-29T09:18:42;5.70;;;2.60;;
48897;SDS011;34713;50.038;20.000;2023-05-29T09:21:33;6.90;;;2.50;;
48897;SDS011;34713;50.038;20.000;2023-05-29T09:24:28;6.50;;;2.30;;
48897;SDS011;34713;50.038;20.000;2023-05-29T09:27:00;7.40;;;2.50;;
48897;SDS011;34713;50.038;20.000;2023-05-29T09:29:42;10.10;;;3.00;;
48897;SDS011;34713;50.038;20.000;2023-05-29T09:32:33;6.70;;;2.40;;
48897;SDS011;34713;50.038;20.000;2023-05-29T09:35:03;6.70;;;2.80;;
48897;SDS011;34713;50.038;20.000;2023-05-29T09:37:40;7.90;;;3.20;;
48897;SDS011;34713;50.038;20.000;2023-05-29T09:43:52;5.70;;;3.10;;
48897;SDS011;34713;50.038;20.000;2023-05-29T09:46:39;6.30;;;2.30;;
48897;SDS011;34713;50.038;20.000;2023-05-29T09:56:10;6.00;;;2.80;;
48897;SDS011;34713;50.038;20.000;2023-05-29T10:05:12;8.40;;;2.20;;
48897;SDS011;34713;50.038;20.000;2023-05-29T10:10:45;9.30;;;2.30;;
48897;SDS011;34713;50.038;20.000;2023-05-29T10:16:36;11.00;;;3.00;;
48897;SDS011;34713;50.038;20.000;2023-05-29T10:19:20;6.50;;;2.70;;
48897;SDS011;34713;50.038;20.000;2023-05-29T10:22:27;9.20;;;2.60;;
48897;SDS011;34713;50.038;20.000;2023-05-29T10:24:57;3.70;;;2.10;;
48897;SDS011;34713;50.038;20.000;2023-05-29T10:27:44;7.10;;;2.70;;
48897;SDS011;34713;50.038;20.000;2023-05-29T10:33:30;7.60;;;2.30;;
48897;SDS011;34713;50.038;20.000;2023-05-29T10:39:40;6.80;;;2.70;;
48897;SDS011;34713;50.038;20.000;2023-05-29T10:46:05;5.90;;;2.40;;
48897;SDS011;34713;50.038;20.000;2023-05-29T10:58:57;6.20;;;2.40;;
48897;SDS011;34713;50.038;20.000;2023-05-29T11:05:42;8.90;;;2.50;;
48897;SDS011;34713;50.038;20.000;2023-05-29T11:09:27;7.00;;;2.20;;
48897;SDS011;34713;50.038;20.000;2023-05-29T11:19:11;5.70;;;2.60;;
48897;SDS011;34713;50.038;20.000;2023-05-29T11:25:41;5.70;;;2.60;;
48897;SDS011;34713;50.038;20.000;2023-05-29T11:31:43;6.70;;;2.90;;
48897;SDS011;34713;50.038;20.000;2023-05-29T11:34:14;7.20;;;2.40;;
48897;SDS011;34713;50.038;20.000;2023-05-29T11:37:07;3.40;;;2.00;;
48897;SDS011;34713;50.038;20.000;2023-05-29T11:39:40;8.40;;;2.50;;
48897;SDS011;34713;50.038;20.000;2023-05-29T11:43:21;7.00;;;2.40;;
48897;SDS011;34713;50.038;20.000;2023-05-29T11:45:42;4.80;;;2.40;;
48897;SDS011;34713;50.038;20.000;2023-05-29T11:48:58;7.00;;;2.70;;
48897;SDS011;34713;50.038;20.000;2023-05-29T11:52:10;5.70;;;2.70;;
48897;SDS011;34713;50.038;20.000;2023-05-29T11:55:09;6.10;;;3.00;;
48897;SDS011;34713;50.038;20.000;2023-05-29T11:58:07;8.50;;;3.00;;
48897;SDS011;34713;50.038;20.000;2023-05-29T12:00:47;5.20;;;2.30;;
48897;SDS011;34713;50.038;20.000;2023-05-29T12:04:03;5.70;;;2.80;;
48897;SDS011;34713;50.038;20.000;2023-05-29T12:06:40;4.50;;;2.80;;
48897;SDS011;34713;50.038;20.000;2023-05-29T12:09:08;4.60;;;2.50;;
48897;SDS011;34713;50.038;20.000;2023-05-29T12:12:16;7.40;;;2.90;;
48897;SDS011;34713;50.038;20.000;2023-05-29T12:15:18;7.50;;;2.60;;
48897;SDS011;34713;50.038;20.000;2023-05-29T12:17:55;4.20;;;2.30;;
48897;SDS011;34713;50.038;20.000;2023-05-29T12:20:25;6.90;;;2.70;;
48897;SDS011;34713;50.038;20.000;2023-05-29T12:23:02;7.90;;;2.60;;
48897;SDS011;34713;50.038;20.000;2023-05-29T12:25:41;5.20;;;2.80;;
48897;SDS011;34713;50.038;20.000;2023-05-29T12:28:32;8.50;;;3.10;;
48897;SDS011;34713;50.038;20.000;2023-05-29T12:31:01;9.50;;;2.80;;
48897;SDS011;34713;50.038;20.000;2023-05-29T12:36:50;5.50;;;2.70;;
48897;SDS011;34713;50.038;20.000;2023-05-29T12:43:12;5.10;;;2.60;;
48897;SDS011;34713;50.038;20.000;2023-05-29T12:45:53;4.80;;;2.60;;
48897;SDS011;34713;50.038;20.000;2023-05-29T12:54:30;5.10;;;2.50;;
48897;SDS011;34713;50.038;20.000;2023-05-29T12:57:20;4.30;;;2.50;;
48897;SDS011;34713;50.038;20.000;2023-05-29T13:03:43;8.10;;;2.50;;
48897;SDS011;34713;50.038;20.000;2023-05-29T13:06:15;5.90;;;2.50;;
48897;SDS011;34713;50.038;20.000;2023-05-29T13:09:23;7.50;;;3.30;;
48897;SDS011;34713;50.038;20.000;2023-05-29T13:12:12;5.90;;;2.40;;
48897;SDS011;34713;50.038;20.000;2023-05-29T13:14:41;6.80;;;2.50;;
48897;SDS011;34713;50.038;20.000;2023-05-29T13:20:35;4.60;;;2.80;;
48897;SDS011;34713;50.038;20.000;2023-05-29T13:35:31;5.60;;;2.90;;
48897;SDS011;34713;50.038;20.000;2023-05-29T13:38:21;5.70;;;2.90;;
48897;SDS011;34713;50.038;20.000;2023-05-29T13:44:05;6.10;;;2.70;;
48897;SDS011;34713;50.038;20.000;2023-05-29T13:46:47;7.00;;;2.90;;
48897;SDS011;34713;50.038;20.000;2023-05-29T13:49:37;6.00;;;2.50;;
48897;SDS011;34713;50.038;20.000;2023-05-29T13:52:04;8.70;;;3.20;;
48897;SDS011;34713;50.038;20.000;2023-05-29T13:54:46;6.10;;;2.70;;
48897;SDS011;34713;50.038;20.000;2023-05-29T13:57:38;6.60;;;2.50;;
48897;SDS011;34713;50.038;20.000;2023-05-29T14:03:09;6.30;;;2.80;;
48897;SDS011;34713;50.038;20.000;2023-05-29T14:09:07;7.10;;;3.90;;
48897;SDS011;34713;50.038;20.000;2023-05-29T14:11:40;6.50;;;3.20;;
48897;SDS011;34713;50.038;20.000;2023-05-29T14:14:10;5.70;;;3.20;;
48897;SDS011;34713;50.038;20.000;2023-05-29T14:16:37;8.70;;;3.00;;
48897;SDS011;34713;50.038;20.000;2023-05-29T14:35:00;5.40;;;2.60;;
48897;SDS011;34713;50.038;20.000;2023-05-29T14:37:49;7.90;;;3.40;;
48897;SDS011;34713;50.038;20.000;2023-05-29T14:40:24;4.20;;;2.70;;
48897;SDS011;34713;50.038;20.000;2023-05-29T14:43:04;5.90;;;2.70;;
48897;SDS011;34713;50.038;20.000;2023-05-29T14:48:45;6.40;;;2.70;;
48897;SDS011;34713;50.038;20.000;2023-05-29T14:51:23;8.10;;;3.30;;
48897;SDS011;34713;50.038;20.000;2023-05-29T14:54:02;5.60;;;3.10;;
48897;SDS011;34713;50.038;20.000;2023-05-29T14:57:09;4.90;;;2.90;;
48897;SDS011;34713;50.038;20.000;2023-05-29T14:59:52;5.50;;;2.70;;
48897;SDS011;34713;50.038;20.000;2023-05-29T15:02:30;16.80;;;4.00;;
48897;SDS011;34713;50.038;20.000;2023-05-29T15:05:20;8.10;;;3.00;;
48897;SDS011;34713;50.038;20.000;2023-05-29T15:11:08;6.80;;;2.80;;
48897;SDS011;34713;50.038;20.000;2023-05-29T15:13:58;5.40;;;3.10;;
48897;SDS011;34713;50.038;20.000;2023-05-29T15:16:27;5.50;;;2.90;;
48897;SDS011;34713;50.038;20.000;2023-05-29T15:18:56;3.90;;;3.00;;
48897;SDS011;34713;50.038;20.000;2023-05-29T15:25:11;5.40;;;2.90;;
48897;SDS011;34713;50.038;20.000;2023-05-29T15:28:01;10.70;;;3.50;;
48897;SDS011;34713;50.038;20.000;2023-05-29T15:37:29;3.90;;;2.70;;
48897;SDS011;34713;50.038;20.000;2023-05-29T15:39:56;6.50;;;3.30;;
48897;SDS011;34713;50.038;20.000;2023-05-29T15:45:39;4.70;;;2.60;;
48897;SDS011;34713;50.038;20.000;2023-05-29T15:48:15;6.00;;;2.90;;
48897;SDS011;34713;50.038;20.000;2023-05-29T15:50:42;5.70;;;2.90;;
48897;SDS011;34713;50.038;20.000;2023-05-29T15:53:09;7.10;;;2.80;;
48897;SDS011;34713;50.038;20.000;2023-05-29T15:58:38;7.30;;;3.10;;
48897;SDS011;34713;50.038;20.000;2023-05-29T16:01:46;8.90;;;3.00;;
48897;SDS011;34713;50.038;20.000;2023-05-29T16:04:38;7.40;;;3.30;;
48897;SDS011;34713;50.038;20.000;2023-05-29T16:07:16;5.50;;;3.00;;
48897;SDS011;34713;50.038;20.000;2023-05-29T16:12:41;4.80;;;2.80;;
48897;SDS011;34713;50.038;20.000;2023-05-29T16:15:27;4.70;;;2.80;;
48897;SDS011;34713;50.038;20.000;2023-05-29T16:17:54;7.30;;;3.60;;
48897;SDS011;34713;50.038;20.000;2023-05-29T16:20:21;4.30;;;2.60;;
48897;SDS011;34713;50.038;20.000;2023-05-29T16:22:58;6.20;;;3.10;;
48897;SDS011;34713;50.038;20.000;2023-05-29T16:25:47;7.30;;;2.60;;
48897;SDS011;34713;50.038;20.000;2023-05-29T16:28:34;6.10;;;3.40;;
48897;SDS011;34713;50.038;20.000;2023-05-29T16:34:36;7.20;;;3.30;;
48897;SDS011;34713;50.038;20.000;2023-05-29T16:37:26;6.60;;;3.50;;
48897;SDS011;34713;50.038;20.000;2023-05-29T16:40:23;7.00;;;3.00;;
48897;SDS011;34713;50.038;20.000;2023-05-29T16:46:41;5.30;;;3.10;;
48897;SDS011;34713;50.038;20.000;2023-05-29T17:06:19;5.70;;;3.40;;
48897;SDS011;34713;50.038;20.000;2023-05-29T17:09:17;7.50;;;3.00;;
48897;SDS011;34713;50.038;20.000;2023-05-29T17:15:25;4.90;;;3.20;;
48897;SDS011;34713;50.038;20.000;2023-05-29T17:21:14;4.80;;;3.40;;
48897;SDS011;34713;50.038;20.000;2023-05-29T17:27:20;6.00;;;3.30;;
48897;SDS011;34713;50.038;20.000;2023-05-29T17:35:34;9.00;;;3.50;;
48897;SDS011;34713;50.038;20.000;2023-05-29T17:38:20;9.30;;;3.90;;
48897;SDS011;34713;50.038;20.000;2023-05-29T17:44:07;6.40;;;3.60;;
48897;SDS011;34713;50.038;20.000;2023-05-29T17:46:44;6.30;;;3.10;;
48897;SDS011;34713;50.038;20.000;2023-05-29T17:49:12;6.60;;;3.10;;
48897;SDS011;34713;50.038;20.000;2023-05-29T17:51:41;5.30;;;3.70;;
48897;SDS011;34713;50.038;20.000;2023-05-29T17:54:29;8.70;;;3.40;;
48897;SDS011;34713;50.038;20.000;2023-05-29T17:57:06;4.70;;;3.00;;
48897;SDS011;34713;50.038;20.000;2023-05-29T17:59:53;5.30;;;3.10;;
48897;SDS011;34713;50.038;20.000;2023-05-29T18:05:08;8.10;;;3.60;;
48897;SDS011;34713;50.038;20.000;2023-05-29T18:07:48;7.00;;;2.90;;
48897;SDS011;34713;50.038;20.000;2023-05-29T18:10:17;5.90;;;3.20;;
48897;SDS011;34713;50.038;20.000;2023-05-29T18:13:29;10.80;;;3.70;;
48897;SDS011;34713;50.038;20.000;2023-05-29T18:16:38;5.60;;;3.30;;
48897;SDS011;34713;50.038;20.000;2023-05-29T18:22:18;7.70;;;3.40;;
48897;SDS011;34713;50.038;20.000;2023-05-29T18:25:02;9.70;;;3.30;;
48897;SDS011;34713;50.038;20.000;2023-05-29T18:27:44;5.20;;;3.40;;
48897;SDS011;34713;50.038;20.000;2023-05-29T18:30:28;6.60;;;3.70;;
48897;SDS011;34713;50.038;20.000;2023-05-29T18:33:20;6.50;;;3.50;;
48897;SDS011;34713;50.038;20.000;2023-05-29T18:36:23;8.90;;;3.60;;
48897;SDS011;34713;50.038;20.000;2023-05-29T18:39:04;5.70;;;3.50;;
48897;SDS011;34713;50.038;20.000;2023-05-29T18:44:40;10.10;;;3.10;;
48897;SDS011;34713;50.038;20.000;2023-05-29T18:49:55;10.20;;;4.40;;
48897;SDS011;34713;50.038;20.000;2023-05-29T19:01:47;10.40;;;4.10;;
48897;SDS011;34713;50.038;20.000;2023-05-29T19:21:15;6.90;;;4.30;;
48897;SDS011;34713;50.038;20.000;2023-05-29T19:30:54;11.80;;;5.40;;
48897;SDS011;34713;50.038;20.000;2023-05-29T19:36:46;8.30;;;5.00;;
48897;SDS011;34713;50.038;20.000;2023-05-29T19:39:16;9.30;;;4.70;;
48897;SDS011;34713;50.038;20.000;2023-05-29T19:45:08;8.00;;;4.80;;
48897;SDS011;34713;50.038;20.000;2023-05-29T19:47:55;11.60;;;6.10;;
48897;SDS011;34713;50.038;20.000;2023-05-29T19:51:02;9.90;;;5.40;;
48897;SDS011;34713;50.038;20.000;2023-05-29T19:53:40;7.90;;;4.40;;
48897;SDS011;34713;50.038;20.000;2023-05-29T20:02:45;13.70;;;5.50;;
48897;SDS011;34713;50.038;20.000;2023-05-29T20:05:16;9.90;;;5.10;;
48897;SDS011;34713;50.038;20.000;2023-05-29T20:08:25;10.40;;;5.40;;